Time;durP1;ratioP1;P1;durP2;ratioP2;P2;SDS_P1;SDS_P2;PMS_P1;PMS_P2;Temp;Humidity;BMP_temperature;BMP_pressure;BME280_temperature;BME280_humidity;BME280_pressure;Samples;Min_cycle;Max_cycle;Signal;HPM_P1;HPM_P2
2021/05/10 00:01:58;;;;;;;1.30;1.20;;;14.10;1.00;;;19.12;83.00;96960.31;5033520;28;20650;-69
2021/05/10 00:04:25;;;;;;;2.77;1.37;;;14.10;1.00;;;19.02;82.52;96966.59;5033455;28;20233;-71
2021/05/10 00:06:52;;;;;;;2.20;1.30;;;14.10;1.00;;;19.34;80.21;96983.19;5025684;28;20727;-68
2021/05/10 00:09:19;;;;;;;2.30;1.43;;;14.20;1.00;;;19.41;79.45;96989.09;5034508;28;20200;-68
2021/05/10 00:11:45;;;;;;;2.07;1.33;;;14.20;1.00;;;19.48;79.79;96995.00;5034046;28;20210;-69
2021/05/10 00:14:12;;;;;;;3.20;1.20;;;14.30;1.00;;;19.55;79.15;97000.13;5033508;28;20334;-69
2021/05/10 00:16:39;;;;;;;3.13;1.27;;;14.30;1.00;;;19.71;77.88;96998.91;5033655;28;20216;-69
2021/05/10 00:19:05;;;;;;;2.23;1.40;;;14.30;1.00;;;19.60;80.42;96986.53;5033178;28;20241;-66
2021/05/10 00:21:32;;;;;;;3.17;1.97;;;14.40;1.00;;;19.78;78.78;96985.84;5035504;28;20206;-67
2021/05/10 00:23:59;;;;;;;2.47;1.40;;;14.40;1.00;;;19.71;79.29;96993.50;5036107;28;20202;-67
2021/05/10 00:26:26;;;;;;;3.03;1.43;;;14.40;1.00;;;19.75;78.64;97000.75;5028517;28;20679;-67
2021/05/10 00:28:52;;;;;;;3.43;1.57;;;14.40;1.00;;;19.80;78.45;96987.19;5030336;28;20235;-68
2021/05/10 00:31:19;;;;;;;2.57;1.53;;;14.40;1.00;;;19.82;77.63;96979.56;5028368;28;20199;-69
2021/05/10 00:33:45;;;;;;;2.23;1.13;;;14.40;1.00;;;19.64;78.62;96982.16;5031741;28;20585;-66
2021/05/10 00:36:12;;;;;;;1.70;1.40;;;14.40;1.00;;;19.76;78.75;96979.91;5018733;28;20641;-66
2021/05/10 00:38:38;;;;;;;1.50;0.97;;;14.40;1.00;;;19.65;79.04;96975.69;5030384;28;20235;-67
2021/05/10 00:41:06;;;;;;;1.57;1.20;;;14.30;1.00;;;19.35;81.44;96976.69;5033072;28;20723;-67
2021/05/10 00:43:32;;;;;;;1.87;1.17;;;14.30;1.00;;;19.37;81.92;96973.72;5030339;28;20264;-68
2021/05/10 00:45:59;;;;;;;2.00;1.20;;;14.20;1.00;;;19.37;81.43;96968.31;5032796;28;20202;-67
2021/05/10 00:48:25;;;;;;;2.23;1.30;;;;;;;19.41;81.03;96967.44;5030641;28;22094;-67
2021/05/10 00:50:52;;;;;;;2.23;1.20;;;14.10;1.00;;;19.11;83.47;96959.50;5032859;28;20536;-67
2021/05/10 00:53:18;;;;;;;3.07;1.23;;;14.00;1.00;;;19.14;84.09;96968.94;5031499;28;20211;-67
2021/05/10 00:55:45;;;;;;;2.67;1.10;;;14.00;1.00;;;18.84;86.46;96969.94;5024442;28;20234;-68
2021/05/10 00:58:13;;;;;;;1.23;1.13;;;13.90;1.00;;;18.98;84.41;96960.13;5032638;28;20226;-67
2021/05/10 01:00:40;;;;;;;3.07;1.27;;;13.80;1.00;;;18.94;84.76;96956.38;5029944;28;20241;-70
2021/05/10 01:03:08;;;;;;;2.87;1.20;;;13.70;1.00;;;18.69;87.18;96963.81;5029575;28;20586;-66
2021/05/10 01:05:36;;;;;;;2.07;1.20;;;13.70;1.00;;;18.77;85.28;96964.03;5030254;28;20202;-69
2021/05/10 01:08:04;;;;;;;2.00;1.50;;;13.60;1.00;;;18.65;87.41;96965.44;5024614;28;20702;-71
2021/05/10 01:10:31;;;;;;;1.30;1.20;;;13.60;1.00;;;18.55;86.89;96963.56;5030788;28;20213;-66
2021/05/10 01:12:57;;;;;;;1.70;1.10;;;13.50;1.00;;;18.59;86.21;96961.94;5025339;28;20214;-66
2021/05/10 01:15:26;;;;;;;2.17;0.90;;;13.40;1.00;;;18.51;87.43;96951.72;5024690;28;20232;-67
2021/05/10 01:17:53;;;;;;;2.57;1.37;;;13.30;1.00;;;18.36;89.02;96948.25;5034418;28;20734;-66
2021/05/10 01:20:23;;;;;;;2.03;1.10;;;13.30;1.00;;;18.27;88.83;96945.28;5035657;28;20297;-68
2021/05/10 01:22:53;;;;;;;1.40;1.00;;;13.20;1.00;;;18.22;89.03;96944.47;5029342;28;20267;-66
2021/05/10 01:25:22;;;;;;;2.40;1.40;;;13.10;1.00;;;18.19;87.62;96953.94;5029393;28;20202;-67
2021/05/10 01:27:49;;;;;;;1.33;1.10;;;13.00;1.00;;;18.11;87.69;96951.81;5031806;28;20322;-67
2021/05/10 01:30:20;;;;;;;1.23;1.10;;;13.00;1.00;;;18.03;88.73;96956.97;5030300;28;20209;-67
2021/05/10 01:32:47;;;;;;;2.13;1.37;;;12.90;1.00;;;17.96;88.53;96954.56;5031046;28;20206;-67
2021/05/10 01:35:17;;;;;;;1.13;0.93;;;12.90;1.00;;;17.98;87.15;96957.00;5025316;28;20725;-67
2021/05/10 01:37:43;;;;;;;1.23;1.00;;;12.90;1.00;;;17.89;87.62;96954.00;5031155;28;20237;-68
2021/05/10 01:40:13;;;;;;;1.63;1.20;;;12.80;1.00;;;17.79;89.12;96954.00;5025690;28;20296;-69
2021/05/10 01:42:39;;;;;;;1.77;1.20;;;12.70;1.00;;;17.82;88.73;96949.97;5030327;28;20614;-69
2021/05/10 01:45:08;;;;;;;2.87;1.20;;;12.70;1.00;;;17.60;89.98;96946.75;5026832;28;20624;-68
2021/05/10 01:47:35;;;;;;;1.87;1.40;;;12.70;1.00;;;17.52;91.62;96948.09;5031534;28;20233;-68
2021/05/10 01:50:11;;;;;;;1.73;1.20;;;12.60;1.00;;;17.65;88.49;96949.44;5030078;28;20222;-68
2021/05/10 01:52:37;;;;;;;3.13;1.20;;;12.60;1.00;;;17.52;90.32;96947.31;5024523;28;20216;-68
2021/05/10 01:55:04;;;;;;;2.50;1.20;;;12.60;1.00;;;17.49;89.90;96950.53;5027835;28;20542;-68
2021/05/10 01:57:32;;;;;;;2.00;1.30;;;12.50;1.00;;;17.47;89.13;96944.63;5028260;28;20229;-68
2021/05/10 01:59:59;;;;;;;1.40;1.20;;;12.50;1.00;;;17.56;88.99;96943.81;5025839;28;20226;-70
2021/05/10 02:02:26;;;;;;;2.07;1.23;;;12.50;1.00;;;17.48;89.52;96938.13;5025937;28;20662;-68
2021/05/10 02:05:09;;;;;;;2.23;1.37;;;12.40;1.00;;;17.52;88.48;96931.91;5030468;28;20295;-68
2021/05/10 02:07:38;;;;;;;1.40;1.27;;;12.40;1.00;;;17.33;89.40;96932.72;5026828;28;20224;-68
2021/05/10 02:10:07;;;;;;;2.50;1.33;;;12.40;1.00;;;17.35;89.93;96934.06;5025661;28;20208;-68
2021/05/10 02:12:34;;;;;;;3.43;1.10;;;12.40;1.00;;;17.40;87.49;96938.66;5028807;28;20204;-68
2021/05/10 02:15:01;;;;;;;1.27;1.17;;;12.40;1.00;;;17.52;87.44;96931.13;5026765;28;20231;-68
2021/05/10 02:17:27;;;;;;;9.73;1.20;;;12.40;1.00;;;17.60;86.08;96938.66;5031029;28;20236;-68
2021/05/10 02:19:53;;;;;;;3.63;1.10;;;12.50;1.00;;;17.66;85.76;96932.19;5030213;28;20203;-69
2021/05/10 02:22:20;;;;;;;1.57;1.03;;;12.50;1.00;;;17.72;85.46;96931.09;5025916;28;20209;-68
2021/05/10 02:24:47;;;;;;;1.60;1.20;;;12.50;1.00;;;17.61;87.00;96929.47;5027451;28;20272;-68
2021/05/10 02:27:13;;;;;;;1.27;1.10;;;12.50;1.00;;;17.58;89.07;96938.13;5030763;28;20231;-68
2021/05/10 02:29:41;;;;;;;3.47;1.60;;;12.50;1.00;;;17.56;88.74;96934.88;5029821;28;20207;-68
2021/05/10 02:32:07;;;;;;;6.00;1.30;;;12.60;1.00;;;17.78;87.30;96928.13;5032118;28;20763;-68
2021/05/10 02:34:34;;;;;;;2.90;1.17;;;12.60;1.00;;;17.89;86.90;96931.63;5027358;28;20321;-68
2021/05/10 02:37:00;;;;;;;2.73;1.40;;;12.60;1.00;;;17.79;87.35;96937.03;5026201;28;20294;-68
2021/05/10 02:39:27;;;;;;;2.50;1.20;;;12.70;1.00;;;17.81;87.39;96926.75;5034480;28;20211;-68
2021/05/10 02:41:53;;;;;;;3.20;1.40;;;12.70;1.00;;;17.80;86.82;96931.38;5024717;28;20226;-71
2021/05/10 02:44:20;;;;;;;3.13;1.40;;;12.80;1.00;;;17.94;86.30;96921.59;5030224;28;20209;-68
2021/05/10 02:46:47;;;;;;;1.80;1.30;;;12.80;1.00;;;18.10;84.57;96919.69;5027672;28;20266;-69
2021/05/10 02:49:14;;;;;;;2.40;1.43;;;12.70;1.00;;;17.94;86.11;96915.41;5024534;28;20244;-68
2021/05/10 02:51:40;;;;;;;2.37;1.70;;;12.70;1.00;;;17.81;88.60;96924.88;5028633;28;20217;-68
2021/05/10 02:54:07;;;;;;;3.80;1.60;;;12.70;1.00;;;17.83;88.22;96914.63;5030307;28;20205;-68
2021/05/10 02:56:34;;;;;;;2.80;1.73;;;12.60;1.00;;;17.82;88.15;96899.50;5026041;28;20560;-68
2021/05/10 02:59:00;;;;;;;3.30;1.57;;;12.60;1.00;;;17.79;87.94;96894.63;5026225;28;20223;-68
2021/05/10 03:01:26;;;;;;;2.03;1.60;;;12.50;1.00;;;17.74;89.35;96899.25;5026177;28;20205;-68
2021/05/10 03:03:54;;;;;;;1.57;1.20;;;12.50;1.00;;;17.78;88.58;96908.44;5024430;28;20207;-68
2021/05/10 03:06:20;;;;;;;3.50;2.03;;;12.50;1.00;;;17.63;91.29;96916.56;5030079;28;20198;-68
2021/05/10 03:08:47;;;;;;;1.50;1.30;;;12.50;1.00;;;17.75;89.41;96917.06;5026268;28;20230;-69
2021/05/10 03:11:14;;;;;;;2.13;1.40;;;12.50;1.00;;;17.79;86.81;96913.53;5028390;28;20692;-69
2021/05/10 03:13:40;;;;;;;3.97;1.43;;;12.50;1.00;;;17.81;86.08;96899.78;5030241;28;20204;-68
2021/05/10 03:16:08;;;;;;;2.43;1.50;;;12.50;1.00;;;17.58;88.41;96917.34;5020992;28;20223;-69
2021/05/10 03:18:34;;;;;;;2.13;1.63;;;12.60;1.00;;;17.80;83.92;96917.06;5026509;28;20248;-68
2021/05/10 03:21:02;;;;;;;3.57;1.70;;;12.60;1.00;;;17.84;83.11;96926.22;5029807;28;20667;-70
2021/05/10 03:23:28;;;;;;;2.30;1.50;;;12.60;1.00;;;17.93;81.05;96936.19;5030339;28;20211;-68
2021/05/10 03:25:55;;;;;;;2.07;0.90;;;12.80;1.00;;;17.98;80.65;96938.09;5028770;28;20201;-70
2021/05/10 03:28:21;;;;;;;4.83;1.30;;;12.80;1.00;;;18.07;79.22;96922.94;5028696;28;20236;-69
2021/05/10 03:30:48;;;;;;;2.77;1.40;;;12.90;1.00;;;18.03;79.24;96929.97;5027114;28;20222;-68
2021/05/10 03:33:14;;;;;;;4.03;1.50;;;13.00;1.00;;;18.14;78.09;96929.66;5027114;28;20215;-68
2021/05/10 03:35:41;;;;;;;2.03;1.40;;;13.20;1.00;;;18.18;76.35;96952.34;5029313;28;20230;-68
2021/05/10 03:38:08;;;;;;;3.13;1.57;;;13.30;1.00;;;18.57;72.53;96961.44;5025165;28;20289;-68
2021/05/10 03:40:34;;;;;;;4.30;1.53;;;13.50;1.00;;;18.62;69.80;96983.03;5029286;28;20747;-68
2021/05/10 03:43:01;;;;;;;4.73;1.13;;;13.70;1.00;;;19.03;65.14;96997.16;5026944;28;20205;-68
2021/05/10 03:45:28;;;;;;;1.53;1.23;;;14.00;1.00;;;19.21;62.19;97000.00;5028185;28;20207;-68
2021/05/10 03:47:54;;;;;;;2.00;1.10;;;14.30;1.00;;;19.43;61.09;97010.47;5027021;28;20238;-67
2021/05/10 03:50:22;;;;;;;2.33;1.00;;;14.50;1.00;;;19.71;59.10;97004.31;5028724;28;20205;-67
2021/05/10 03:52:50;;;;;;;8.67;1.63;;;14.70;1.00;;;19.79;60.85;97012.63;5026023;28;20218;-67
2021/05/10 03:55:22;;;;;;;5.23;1.60;;;14.90;1.00;;;19.93;58.83;97026.34;5026126;28;20687;-67
2021/05/10 03:57:49;;;;;;;4.97;1.83;;;15.00;1.00;;;20.08;56.46;97020.81;5027250;28;20725;-67
2021/05/10 04:00:18;;;;;;;1.43;1.17;;;15.10;1.00;;;20.30;54.76;97029.28;5030370;28;20206;-67
2021/05/10 04:02:45;;;;;;;4.37;1.53;;;15.10;1.00;;;20.27;57.61;97010.88;5026764;28;20203;-67
2021/05/10 04:05:21;;;;;;;3.63;1.60;;;15.20;1.00;;;20.36;57.30;97017.31;5025953;28;20200;-66
2021/05/10 04:07:53;;;;;;;2.73;1.80;;;15.20;1.00;;;20.36;57.11;97009.19;5025759;28;20705;-66
2021/05/10 04:15:55;;;;;;;4.10;1.47;;;15.10;1.00;;;20.09;59.19;97022.44;5029400;28;20237;-67
2021/05/10 04:18:22;;;;;;;3.47;1.70;;;15.10;1.00;;;20.30;55.85;97023.84;5026110;28;20218;-66
2021/05/10 04:20:49;;;;;;;2.07;1.30;;;15.20;1.00;;;20.32;48.74;97051.50;5024756;28;20200;-68
2021/05/10 04:23:17;;;;;;;1.43;0.97;;;15.40;1.00;;;20.82;47.83;97051.75;5031136;28;20289;-68
2021/05/10 04:25:46;;;;;;;2.97;1.03;;;15.70;1.00;;;21.08;44.66;97065.88;5030884;28;20206;-73
2021/05/10 04:28:14;;;;;;;2.70;1.13;;;16.10;99.90;;;21.11;43.61;97067.97;5026184;28;20246;-67
2021/05/10 04:30:40;;;;;;;1.95;0.93;;;16.70;1.00;;;21.43;42.03;97066.19;5019405;28;20454;-67
2021/05/10 04:33:07;;;;;;;3.17;0.90;;;17.00;1.00;;;21.83;40.66;97071.06;5025437;28;20665;-65
2021/05/10 04:35:33;;;;;;;4.07;0.90;;;17.40;99.90;;;22.23;39.75;97059.56;5027669;28;20220;-71
2021/05/10 04:38:02;;;;;;;1.53;1.00;;;17.60;1.00;;;22.37;39.16;97067.75;5025072;28;20229;-66
2021/05/10 04:40:28;;;;;;;1.30;0.80;;;17.70;1.00;;;22.44;39.17;97058.13;5029831;28;20198;-66
2021/05/10 04:42:56;;;;;;;2.07;1.27;;;17.90;99.90;;;22.90;38.54;97049.94;5029920;28;20206;-69
2021/05/10 04:45:22;;;;;;;2.80;1.20;;;17.80;1.00;;;22.87;37.53;97058.69;5027975;28;20202;-69
2021/05/10 04:47:49;;;;;;;2.27;1.03;;;17.80;5.40;;;22.96;37.46;97051.44;5031925;28;20252;-70
2021/05/10 04:50:16;;;;;;;1.30;1.07;;;17.80;1.00;;;23.00;37.68;97050.53;5033510;28;20220;-70
2021/05/10 04:52:43;;;;;;;3.07;1.13;;;17.70;41.90;;;23.01;39.04;97043.19;5033157;28;20211;-70
2021/05/10 04:55:12;;;;;;;3.67;1.10;;;17.70;57.00;;;22.84;40.03;97037.53;5031114;28;20752;-73
2021/05/10 04:57:39;;;;;;;3.10;1.20;;;17.60;62.50;;;22.86;43.05;97027.94;5027176;28;20241;-70
2021/05/10 05:00:10;;;;;;;6.67;1.57;;;17.60;5.30;;;22.94;42.70;97038.13;5068705;22;20222;-67
2021/05/10 05:02:37;;;;;;;3.43;1.13;;;17.60;30.20;;;23.23;41.68;97037.84;5053134;28;20210;-66
2021/05/10 05:05:05;;;;;;;3.00;1.20;;;17.70;52.90;;;23.36;40.72;97042.47;5053820;28;20198;-65
2021/05/10 05:07:31;;;;;;;3.47;1.30;;;17.70;52.50;;;23.24;42.12;97044.91;5055830;28;20210;-70
2021/05/10 05:09:58;;;;;;;3.47;1.50;;;17.80;49.70;;;23.05;43.96;97044.97;5053999;28;20225;-68
2021/05/10 05:12:25;;;;;;;5.83;2.63;;;17.80;46.00;;;22.99;45.53;97043.47;5053691;28;20238;-67
2021/05/10 05:14:51;;;;;;;5.83;1.87;;;17.70;50.70;;;22.99;44.92;97042.66;5052768;28;20225;-67
2021/05/10 05:17:18;;;;;;;4.97;2.10;;;17.60;46.50;;;23.18;43.90;97038.75;5053856;28;20205;-67
2021/05/10 05:19:45;;;;;;;6.57;2.20;;;17.60;43.40;;;22.94;48.04;97045.47;5053533;28;20222;-67
2021/05/10 05:22:11;;;;;;;5.97;2.20;;;17.60;40.30;;;22.54;51.18;97043.56;5053777;28;20213;-66
2021/05/10 05:24:38;;;;;;;3.27;1.77;;;17.40;23.20;;;22.58;47.92;97048.09;5052953;28;20212;-68
2021/05/10 05:27:05;;;;;;;3.27;1.10;;;17.30;1.00;;;22.71;49.39;97060.09;5053532;28;20214;-66
2021/05/10 05:29:32;;;;;;;2.43;1.13;;;17.30;1.00;;;22.49;51.62;97052.59;5052432;28;20271;-67
2021/05/10 05:31:59;;;;;;;4.67;1.40;;;17.30;1.00;;;22.10;54.47;97041.28;5053007;28;20201;-66
2021/05/10 05:34:26;;;;;;;1.70;1.13;;;17.30;1.00;;;22.64;52.44;97054.25;5053116;28;20204;-67
2021/05/10 05:36:53;;;;;;;6.30;1.80;;;17.30;1.00;;;22.44;53.85;97041.00;5045353;28;20293;-67
2021/05/10 05:39:20;;;;;;;6.03;1.70;;;17.30;1.00;;;22.80;52.99;97052.84;5053153;28;20225;-67
2021/05/10 05:41:46;;;;;;;6.47;1.70;;;17.40;1.00;;;22.70;55.50;97053.06;5052679;28;20658;-67
2021/05/10 05:44:13;;;;;;;4.73;1.50;;;17.50;1.00;;;23.17;51.93;97050.75;5052595;28;20202;-66
2021/05/10 05:46:42;;;;;;;2.60;1.50;;;17.60;1.00;;;23.12;50.44;97052.75;5053209;28;20202;-66
2021/05/10 05:49:09;;;;;;;3.53;1.40;;;17.80;1.00;;;23.47;50.06;97061.00;5053186;28;20233;-66
2021/05/10 05:51:37;;;;;;;5.63;1.40;;;17.90;1.00;;;23.39;51.41;97077.25;5053519;28;20251;-66
2021/05/10 05:54:04;;;;;;;7.63;1.80;;;18.00;1.00;;;23.46;49.86;97092.06;5052318;28;20618;-66
2021/05/10 05:56:32;;;;;;;3.27;1.27;;;18.10;1.00;;;23.65;47.20;97095.47;5052082;28;20595;-66
2021/05/10 05:58:59;;;;;;;2.57;1.27;;;18.10;1.00;;;23.77;47.40;97103.91;5051968;28;20209;-66
2021/05/10 06:01:25;;;;;;;3.67;1.47;;;18.20;1.00;;;23.63;49.61;97116.78;5047923;28;20202;-65
2021/05/10 06:03:53;;;;;;;7.53;1.43;;;18.30;1.00;;;23.66;48.07;97118.88;5047622;28;20240;-66
2021/05/10 06:06:19;;;;;;;4.80;1.47;;;18.30;1.00;;;23.77;44.39;97136.59;5052865;28;20202;-66
2021/05/10 06:08:47;;;;;;;2.97;1.30;;;18.30;1.00;;;23.91;45.81;97137.41;5052196;28;20225;-66
2021/05/10 06:11:13;;;;;;;4.57;1.67;;;18.40;1.00;;;23.78;50.30;97140.16;5047387;28;20205;-66
2021/05/10 06:13:40;;;;;;;2.87;1.20;;;18.40;1.00;;;23.87;49.84;97139.09;5052570;28;20210;-65
2021/05/10 06:16:07;;;;;;;3.67;1.30;;;18.30;1.00;;;23.88;49.75;97129.84;5052445;28;20308;-67
2021/05/10 06:18:35;;;;;;;3.77;1.10;;;18.30;1.00;;;23.55;43.02;97152.06;5052530;28;20210;-67
2021/05/10 06:21:03;;;;;;;5.67;1.33;;;18.40;1.00;;;23.65;44.89;97152.69;5052468;28;20686;-66
2021/05/10 06:23:29;;;;;;;3.20;1.17;;;18.50;1.00;;;23.79;43.62;97160.84;5051710;28;20198;-66
2021/05/10 06:25:57;;;;;;;3.03;1.27;;;18.60;14.90;;;24.22;41.16;97170.25;5052231;28;20247;-72
2021/05/10 06:28:24;;;;;;;4.07;1.90;;;18.80;20.40;;;24.17;44.56;97167.66;5052453;28;20244;-68
2021/05/10 06:30:50;;;;;;;4.17;1.77;;;18.90;8.40;;;23.98;50.62;97156.91;5052082;28;20221;-67
2021/05/10 06:33:17;;;;;;;4.50;1.50;;;18.90;1.00;;;23.43;41.79;97188.00;5052050;28;20278;-67
2021/05/10 06:35:43;;;;;;;2.20;1.20;;;19.00;23.50;;;24.09;40.88;97171.91;5051216;28;20222;-68
2021/05/10 06:38:13;;;;;;;3.47;1.43;;;19.20;33.00;;;24.23;40.58;97178.13;5051403;28;20222;-68
2021/05/10 06:40:40;;;;;;;6.43;1.57;;;19.30;71.80;;;24.21;42.25;97176.81;5051678;28;20687;-68
2021/05/10 06:43:07;;;;;;;4.87;1.40;;;19.40;70.30;;;25.21;39.07;97177.06;5051803;28;20211;-67
2021/05/10 06:45:34;;;;;;;3.53;1.40;;;19.60;1.00;;;25.61;37.78;97182.25;5053033;28;20571;-68
2021/05/10 06:48:00;;;;;;;9.27;1.17;;;19.80;1.00;;;25.84;35.54;97194.69;5050417;28;20669;-68
2021/05/10 06:50:27;;;;;;;5.30;1.10;;;20.10;28.20;;;26.03;34.57;97199.88;5051033;28;20276;-67
2021/05/10 06:52:53;;;;;;;3.77;1.60;;;20.40;98.20;;;25.40;37.63;97191.31;5051016;28;20228;-67
2021/05/10 06:55:20;;;;;;;3.30;1.50;;;20.40;99.90;;;26.30;34.95;97207.84;5048434;28;20286;-68
2021/05/10 06:57:46;;;;;;;3.77;1.10;;;20.50;99.90;;;26.21;33.93;97205.09;5049559;28;20212;-75
2021/05/10 07:00:16;;;;;;;1.83;1.10;;;20.80;99.90;;;24.86;36.22;97219.75;5051192;28;20733;-66
2021/05/10 07:02:42;;;;;;;3.57;1.20;;;20.70;99.90;;;25.75;36.33;97220.38;5050863;28;20205;-74
2021/05/10 07:05:10;;;;;;;1.00;0.90;;;20.60;99.90;;;25.42;35.90;97239.06;5050631;28;20208;-67
2021/05/10 07:07:36;;;;;;;2.80;1.17;;;20.60;99.90;;;25.87;36.00;97236.97;5044226;28;20223;-72
2021/05/10 07:10:04;;;;;;;3.90;1.37;;;20.70;99.90;;;25.22;37.51;97245.03;5050516;28;20222;-69
2021/05/10 07:12:30;;;;;;;4.67;1.43;;;20.60;99.90;;;25.52;38.13;97257.09;5047770;28;20203;-69
2021/05/10 07:14:57;;;;;;;6.03;1.40;;;20.50;99.90;;;25.09;38.51;97250.56;5044868;28;20227;-68
2021/05/10 07:17:24;;;;;;;1.40;1.00;;;20.60;99.90;;;25.62;37.88;97256.81;5045778;28;20207;-67
2021/05/10 07:19:51;;;;;;;1.50;1.00;;;20.70;99.90;;;26.18;36.90;97273.28;5047294;28;20227;-68
2021/05/10 07:22:17;;;;;;;3.43;1.33;;;20.90;99.90;;;25.72;37.87;97275.69;5047621;28;20227;-67
2021/05/10 07:24:44;;;;;;;1.83;1.10;;;21.00;99.90;;;25.27;39.54;97266.78;5044408;28;20811;-68
2021/05/10 07:27:10;;;;;;;1.97;1.10;;;20.90;99.90;;;26.17;38.12;97258.00;5044471;28;20204;-66
2021/05/10 07:29:37;;;;;;;2.60;1.30;;;21.20;99.90;;;26.40;36.76;97265.78;5045257;28;20233;-80
2021/05/10 07:32:04;;;;;;;1.83;1.27;;;21.40;99.90;;;24.54;42.07;97249.97;5044457;28;20299;-67
2021/05/10 07:34:31;;;;;;;3.17;1.30;;;20.90;99.90;;;25.21;41.17;97267.19;5051223;28;20207;-70
2021/05/10 07:36:58;;;;;;;1.40;1.13;;;21.00;99.90;;;25.27;41.08;97268.69;5048241;28;20660;-68
2021/05/10 07:39:24;;;;;;;3.80;1.20;;;21.10;99.90;;;24.95;43.10;97272.47;5050576;28;20228;-66
2021/05/10 07:41:51;;;;;;;8.17;1.67;;;21.00;99.90;;;25.38;42.78;97262.66;5044590;28;20203;-65
2021/05/10 07:44:17;;;;;;;2.43;1.20;;;21.00;99.90;;;25.63;42.44;97261.16;5048078;28;20203;-66
2021/05/10 07:46:44;;;;;;;2.40;1.60;;;21.20;99.90;;;26.77;39.68;97267.13;5047125;28;20222;-66
2021/05/10 07:49:10;;;;;;;6.20;1.47;;;21.70;99.90;;;26.72;40.05;97278.25;5048233;28;20231;-66
2021/05/10 07:51:37;;;;;;;3.97;1.50;;;21.90;99.90;;;25.41;43.39;97274.88;5049164;28;20211;-66
2021/05/10 07:54:04;;;;;;;2.20;1.10;;;21.50;99.90;;;26.04;42.48;97273.41;5046160;28;20209;-70
2021/05/10 07:56:31;;;;;;;5.47;1.47;;;21.80;99.90;;;26.68;43.97;97269.88;5049310;28;20233;-75
2021/05/10 07:58:59;;;;;;;3.10;1.10;;;22.00;99.90;;;27.62;40.07;97278.78;5048067;28;20619;-69
2021/05/10 08:01:25;;;;;;;3.87;1.50;;;22.30;99.90;;;25.06;46.74;97276.56;5046503;28;20208;-67
2021/05/10 08:03:52;;;;;;;5.00;1.30;;;21.90;99.90;;;25.43;46.71;97264.47;5048267;28;20324;-66
2021/05/10 08:06:18;;;;;;;6.07;1.40;;;21.60;99.90;;;25.97;45.83;97255.88;5048419;28;20665;-66
2021/05/10 08:08:46;;;;;;;2.22;1.40;;;21.70;99.90;;;25.47;48.24;97240.84;5045899;28;20223;-65
2021/05/10 08:11:12;;;;;;;2.83;1.30;;;21.40;99.90;;;26.63;45.32;97237.19;5048272;28;20665;-66
2021/05/10 08:13:39;;;;;;;3.13;1.27;;;21.80;99.90;;;25.98;47.19;97236.41;5045699;28;20836;-66
2021/05/10 08:16:05;;;;;;;2.33;1.17;;;21.70;99.90;;;26.51;45.98;97236.19;5046520;28;20229;-66
2021/05/10 08:18:32;;;;;;;12.77;2.23;;;21.80;99.90;;;26.41;45.69;97237.28;5048040;28;20209;-66
2021/05/10 08:20:58;;;;;;;5.30;1.50;;;22.10;99.90;;;26.23;43.81;97246.59;5045945;28;20294;-66
2021/05/10 08:23:25;;;;;;;3.03;1.10;;;22.20;99.90;;;26.46;43.21;97248.06;5054817;28;20216;-65
2021/05/10 08:25:53;;;;;;;3.72;1.23;;;22.20;99.90;;;27.49;41.16;97259.78;5053105;28;20202;-66
2021/05/10 08:28:20;;;;;;;4.93;1.17;;;22.60;99.90;;;27.60;40.12;97261.03;5052338;28;20677;-65
2021/05/10 08:30:47;;;;;;;4.65;1.20;;;22.70;99.90;;;27.77;39.85;97266.47;5053395;28;20316;-66
2021/05/10 08:33:14;;;;;;;2.10;1.10;;;22.80;99.90;;;27.20;41.98;97256.94;5053904;28;20208;-66
2021/05/10 08:35:40;;;;;;;4.35;1.48;;;22.60;99.90;;;27.16;42.65;97259.50;5053278;28;20233;-66
2021/05/10 08:38:07;;;;;;;3.75;1.30;;;22.40;99.90;;;26.40;45.09;97263.03;5053905;28;20255;-66
2021/05/10 08:40:33;;;;;;;4.38;1.20;;;22.20;99.90;;;26.72;43.18;97275.50;5053867;28;20235;-66
2021/05/10 08:43:01;;;;;;;3.83;1.40;;;21.90;99.90;;;25.88;44.96;97269.47;5053799;28;20251;-66
2021/05/10 08:45:28;;;;;;;5.95;1.67;;;21.60;99.90;;;25.83;45.10;97285.22;5053448;28;20197;-66
2021/05/10 08:47:59;;;;;;;2.43;1.33;;;21.40;99.90;;;25.97;44.58;97272.28;5054123;28;20645;-66
2021/05/10 08:50:26;;;;;;;3.80;1.23;;;21.30;99.90;;;26.16;44.77;97270.91;5051356;28;20225;-64
2021/05/10 08:52:53;;;;;;;4.97;1.30;;;21.40;99.90;;;25.91;46.35;97273.50;5050563;28;20301;-66
2021/05/10 08:55:19;;;;;;;3.87;1.40;;;21.40;99.90;;;25.66;46.86;97271.47;5051679;28;20236;-66
2021/05/10 08:57:46;;;;;;;3.13;1.30;;;21.50;99.90;;;26.83;45.05;97266.66;5053572;28;20596;-65
2021/05/10 09:00:16;;;;;;;3.53;1.40;;;21.70;99.90;;;27.22;43.20;97282.91;5052811;28;20233;-65
2021/05/10 09:02:43;;;;;;;4.25;1.25;;;21.80;99.90;;;27.12;42.56;97285.16;5054002;28;20279;-67
2021/05/10 09:05:13;;;;;;;5.50;1.60;;;22.10;99.90;;;25.83;46.53;97294.22;5053094;28;20194;-66
2021/05/10 09:07:39;;;;;;;2.73;1.20;;;21.80;99.90;;;25.49;48.75;97285.84;5053405;28;20214;-66
2021/05/10 09:10:08;;;;;;;5.03;2.05;;;21.30;99.90;;;26.27;45.98;97287.81;5052711;28;20225;-66
2021/05/10 09:12:56;;;;;;;3.17;1.33;;;21.50;99.90;;;25.58;47.98;97297.66;5053069;28;20205;-66
2021/05/10 09:15:27;;;;;;;3.28;1.52;;;21.50;99.90;;;25.62;49.19;97292.34;5047608;28;20233;-67
2021/05/10 09:17:56;;;;;;;4.70;1.60;;;21.40;99.90;;;25.96;48.13;97298.00;5053060;28;20228;-66
2021/05/10 09:20:25;;;;;;;4.35;1.40;;;21.30;99.90;;;25.24;50.00;97289.22;5050039;28;20245;-67
2021/05/10 09:22:53;;;;;;;4.53;1.40;;;21.10;99.90;;;25.20;50.76;97290.97;5045032;28;20231;-66
2021/05/10 09:25:21;;;;;;;5.63;2.23;;;21.10;99.90;;;24.81;53.38;97287.28;5052420;28;20206;-66
2021/05/10 09:27:48;;;;;;;4.87;1.27;;;20.80;99.90;;;25.81;50.33;97284.72;5049173;28;20258;-66
2021/05/10 09:30:21;;;;;;;3.40;1.43;;;21.10;99.90;;;26.57;48.88;97286.91;5048107;28;20276;-66
2021/05/10 09:32:52;;;;;;;4.10;1.80;;;21.60;99.90;;;26.44;47.27;97321.47;5052434;28;20292;-67
2021/05/10 09:35:25;;;;;;;2.13;1.23;;;21.90;99.90;;;25.94;49.70;97303.78;5049982;28;20308;-67
2021/05/10 09:38:04;;;;;;;2.67;1.40;;;21.60;99.90;;;24.56;55.70;97291.38;5048420;28;20242;-66
2021/05/10 09:40:46;;;;;;;1.83;1.00;;;21.00;99.90;;;25.41;53.89;97294.00;5048612;28;20307;-66
2021/05/10 09:43:14;;;;;;;3.57;1.30;;;21.30;99.90;;;25.43;51.72;97289.06;5047414;28;20204;-67
2021/05/10 09:45:46;;;;;;;6.23;1.53;;;21.30;99.90;;;26.26;48.71;97291.66;5049727;28;20662;-67
2021/05/10 09:48:23;;;;;;;3.27;1.30;;;21.90;99.90;;;25.96;48.96;97296.09;5050790;28;20211;-66
2021/05/10 09:50:57;;;;;;;6.20;1.40;;;22.00;99.90;;;26.33;46.81;97297.47;5052370;28;20713;-66
2021/05/10 09:53:36;;;;;;;3.87;1.50;;;22.00;99.90;;;26.53;45.46;97294.94;5049531;28;20289;-66
2021/05/10 09:56:05;;;;;;;2.65;1.25;;;22.20;99.90;;;27.36;42.74;97310.94;5047407;28;20229;-66
2021/05/10 09:58:44;;;;;;;4.50;1.30;;;22.60;99.90;;;26.39;43.83;97318.06;5044090;28;20211;-66
2021/05/10 10:01:12;;;;;;;2.33;1.00;;;21.70;99.90;;;25.71;46.49;97299.50;5046545;28;20206;-67
2021/05/10 10:03:41;;;;;;;1.67;0.90;;;21.60;99.90;;;26.38;43.42;97308.25;5049840;28;21633;-67
2021/05/10 10:06:11;;;;;;;3.77;1.20;;;21.80;99.90;;;26.89;40.49;97305.63;5047621;28;20208;-66
2021/05/10 10:08:39;;;;;;;5.97;1.23;;;22.30;99.90;;;26.96;40.13;97322.38;5050403;28;20247;-66
2021/05/10 10:11:10;;;;;;;3.03;0.90;;;22.40;99.90;;;26.70;41.21;97307.88;5040456;28;20702;-65
2021/05/10 10:13:37;;;;;;;1.70;0.80;;;21.90;99.90;;;25.88;43.18;97329.63;5049309;28;20210;-65
2021/05/10 10:16:07;;;;;;;2.33;0.80;;;21.50;99.90;;;25.18;45.93;97325.19;5049274;28;20721;-67
2021/05/10 10:18:37;;;;;;;3.30;1.00;;;21.30;99.90;;;25.36;44.81;97360.53;5048071;28;20212;-67
2021/05/10 10:21:05;;;;;;;1.23;0.60;;;21.30;99.90;;;24.96;46.72;97347.81;5043034;28;20237;-68
2021/05/10 10:23:34;;;;;;;0.97;0.60;;;21.10;99.90;;;25.75;43.02;97354.34;5044489;28;20232;-67
2021/05/10 10:26:02;;;;;;;0.60;0.60;;;21.40;99.90;;;25.93;43.83;97347.84;5053876;28;20315;-71
2021/05/10 10:28:29;;;;;;;2.10;1.00;;;21.40;99.90;;;26.41;42.47;97365.09;5050697;28;20675;-65
2021/05/10 10:31:00;;;;;;;1.83;0.60;;;21.70;99.90;;;25.61;44.45;97378.19;5051433;28;20235;-69